createdAt,value
2019-04-19T00:01:15.891Z,1.90
2019-04-19T00:03:45.297Z,2.67
2019-04-19T00:06:23.281Z,2.22
2019-04-19T00:09:03.858Z,2.00
2019-04-19T00:11:26.794Z,2.10
2019-04-19T00:13:45.948Z,2.42
2019-04-19T00:16:15.064Z,2.37
2019-04-19T00:18:55.839Z,2.72
2019-04-19T00:21:30.384Z,3.08
2019-04-19T00:23:47.955Z,2.92
2019-04-19T00:26:14.815Z,2.92
2019-04-19T00:28:51.375Z,3.15
2019-04-19T00:31:29.572Z,2.65
2019-04-19T00:33:48.507Z,2.12
2019-04-19T00:36:16.469Z,1.85
2019-04-19T00:38:57.687Z,2.25
2019-04-19T00:41:36.992Z,2.10
2019-04-19T00:44:09.187Z,2.30
2019-04-19T00:46:50.925Z,2.00
2019-04-19T00:49:12.351Z,2.02
2019-04-19T00:51:43.249Z,2.08
2019-04-19T00:54:24.897Z,2.45
2019-04-19T00:56:56.017Z,1.80
2019-04-19T00:59:18.285Z,2.47
2019-04-19T01:01:55.482Z,2.22
2019-04-19T01:04:20.466Z,2.65
2019-04-19T01:06:50.853Z,2.22
2019-04-19T01:09:31.025Z,3.25
2019-04-19T01:12:04.288Z,2.98
2019-04-19T01:14:31.237Z,2.22
2019-04-19T01:17:04.713Z,2.85
2019-04-19T01:19:19.438Z,2.72
2019-04-19T01:21:47.512Z,3.00
2019-04-19T01:24:19.872Z,2.98
2019-04-19T01:26:48.650Z,2.58
2019-04-19T01:29:19.428Z,3.05
2019-04-19T01:31:48.692Z,2.75
2019-04-19T01:34:20.845Z,2.80
2019-04-19T01:36:48.439Z,3.00
2019-04-19T01:39:29.039Z,2.77
2019-04-19T01:41:58.195Z,2.80
2019-04-19T01:44:33.977Z,3.02
2019-04-19T01:47:09.872Z,3.10
2019-04-19T01:49:49.169Z,2.25
2019-04-19T01:52:30.264Z,2.98
2019-04-19T01:54:50.354Z,3.77
2019-04-19T01:57:08.038Z,2.45
2019-04-19T01:59:40.607Z,2.05
2019-04-19T02:02:09.626Z,2.35
2019-04-19T02:04:37.685Z,1.80
2019-04-19T02:07:15.873Z,2.20
2019-04-19T02:09:54.378Z,1.77
2019-04-19T02:12:22.420Z,1.82
2019-04-19T02:14:48.245Z,2.45
2019-04-19T02:17:11.572Z,2.40
2019-04-19T02:19:38.696Z,1.85
2019-04-19T02:22:14.329Z,2.20
2019-04-19T02:24:45.274Z,1.82
2019-04-19T02:27:10.088Z,2.35
2019-04-19T02:29:38.422Z,2.00
2019-04-19T02:32:29.860Z,2.27
2019-04-19T02:37:34.539Z,2.10
2019-04-19T02:45:03.727Z,2.05
2019-04-19T02:50:04.898Z,2.00
2019-04-19T02:53:12.519Z,2.33
2019-04-19T03:00:37.681Z,2.07
2019-04-19T03:03:03.103Z,2.00
2019-04-19T03:07:36.550Z,1.90
2019-04-19T03:10:12.845Z,2.40
2019-04-19T03:13:00.122Z,1.80
2019-04-19T03:15:26.310Z,2.08
2019-04-19T03:17:55.684Z,1.87
2019-04-19T03:20:28.610Z,2.27
2019-04-19T03:22:59.361Z,2.40
2019-04-19T03:25:25.119Z,2.17
2019-04-19T03:27:52.133Z,2.30
2019-04-19T03:30:30.040Z,2.63
2019-04-19T03:36:21.648Z,2.30
2019-04-19T03:38:48.465Z,2.40
2019-04-19T03:41:55.022Z,2.30
2019-04-19T03:44:10.397Z,2.70
2019-04-19T03:46:48.138Z,2.20
2019-04-19T03:49:19.504Z,2.87
2019-04-19T03:51:41.021Z,2.37
2019-04-19T03:54:14.180Z,2.07
2019-04-19T03:56:38.035Z,2.23
2019-04-19T03:58:53.067Z,2.43
2019-04-19T04:01:47.956Z,2.50
2019-04-19T04:04:18.132Z,2.80
2019-04-19T04:06:44.203Z,2.70
2019-04-19T04:09:18.400Z,2.40
2019-04-19T04:12:02.267Z,2.50
2019-04-19T04:14:32.059Z,2.70
2019-04-19T04:16:58.336Z,2.33
2019-04-19T04:19:27.306Z,2.70
2019-04-19T04:21:57.301Z,2.73
2019-04-19T04:24:32.466Z,2.77
2019-04-19T04:27:05.801Z,2.17
2019-04-19T04:29:34.508Z,2.40
2019-04-19T04:32:08.580Z,2.10
2019-04-19T04:34:43.421Z,2.60
2019-04-19T04:37:13.631Z,2.67
2019-04-19T04:39:28.314Z,2.67
2019-04-19T04:42:11.151Z,2.37
2019-04-19T04:44:57.432Z,2.33
2019-04-19T04:47:24.105Z,2.53
2019-04-19T04:50:06.067Z,2.10
2019-04-19T04:52:23.703Z,2.23
2019-04-19T04:54:48.269Z,3.17
2019-04-19T04:57:28.589Z,2.83
2019-04-19T04:59:55.219Z,2.80
2019-04-19T05:02:39.943Z,2.40
2019-04-19T05:05:10.144Z,2.60
2019-04-19T05:07:41.906Z,2.60
2019-04-19T05:10:09.339Z,2.30
2019-04-19T05:12:58.957Z,2.43
2019-04-19T05:15:10.071Z,2.57
2019-04-19T05:17:46.037Z,2.90
2019-04-19T05:20:14.347Z,2.67
2019-04-19T05:22:32.632Z,3.20
2019-04-19T05:25:19.450Z,2.87
2019-04-19T05:27:45.490Z,2.60
2019-04-19T05:29:55.824Z,3.20
2019-04-19T05:32:48.989Z,3.23
2019-04-19T05:35:25.351Z,2.52
2019-04-19T05:37:58.544Z,2.60
2019-04-19T05:40:41.265Z,2.60
2019-04-19T05:43:46.391Z,2.57
2019-04-19T05:46:03.732Z,2.60
2019-04-19T05:48:21.309Z,2.80
2019-04-19T05:51:06.418Z,3.00
2019-04-19T05:53:19.069Z,2.70
2019-04-19T05:55:36.973Z,3.08
2019-04-19T05:58:16.544Z,2.60
2019-04-19T06:00:51.362Z,2.67
2019-04-19T06:03:19.017Z,2.98
2019-04-19T06:06:03.298Z,2.77
2019-04-19T06:08:15.519Z,3.17
2019-04-19T06:10:45.742Z,3.22
2019-04-19T06:13:11.960Z,3.02
2019-04-19T06:16:02.291Z,2.92
2019-04-19T06:18:27.053Z,2.67
2019-04-19T06:21:04.226Z,2.75
2019-04-19T06:23:38.386Z,2.35
2019-04-19T06:26:35.119Z,2.42
2019-04-19T06:28:34.584Z,2.77
2019-04-19T06:31:03.094Z,2.27
2019-04-19T06:33:31.824Z,2.27
2019-04-19T06:36:07.643Z,3.00
2019-04-19T06:38:35.465Z,2.20
2019-04-19T06:41:10.871Z,2.40
2019-04-19T06:43:47.552Z,2.25
2019-04-19T06:46:16.453Z,2.37
2019-04-19T06:48:36.936Z,2.40
2019-04-19T06:51:14.667Z,1.80
2019-04-19T06:53:41.020Z,2.58
2019-04-19T06:56:15.475Z,2.08
2019-04-19T06:58:44.385Z,2.40
2019-04-19T07:01:18.150Z,2.87
2019-04-19T07:03:36.501Z,2.02
2019-04-19T07:06:21.570Z,2.52
2019-04-19T07:11:28.615Z,2.10
2019-04-19T07:13:48.683Z,2.12
2019-04-19T07:16:32.995Z,2.83
2019-04-19T07:18:46.409Z,2.20
2019-04-19T07:21:29.064Z,2.08
2019-04-19T07:23:54.700Z,1.82
2019-04-19T07:26:28.442Z,2.37
2019-04-19T07:28:38.546Z,1.92
2019-04-19T07:31:09.762Z,2.05
2019-04-19T07:33:45.442Z,2.30
2019-04-19T07:36:40.198Z,2.12
2019-04-19T07:38:59.480Z,2.30
2019-04-19T07:41:26.745Z,2.10
2019-04-19T07:43:56.177Z,2.12
2019-04-19T07:46:37.049Z,2.00
2019-04-19T07:48:45.417Z,2.10
2019-04-19T07:51:21.995Z,2.40
2019-04-19T07:53:47.761Z,2.15
2019-04-19T07:56:28.881Z,2.10
2019-04-19T08:01:45.432Z,1.98
2019-04-19T08:04:24.557Z,2.15
2019-04-19T08:09:13.659Z,2.30
2019-04-19T08:11:46.517Z,2.00
2019-04-19T08:14:17.502Z,2.02
2019-04-19T08:17:26.359Z,2.05
2019-04-19T08:28:56.322Z,2.22
2019-04-19T08:31:18.131Z,2.08
2019-04-19T08:33:46.716Z,2.20
2019-04-19T08:36:24.126Z,1.95
2019-04-19T08:39:05.395Z,1.82
2019-04-19T08:41:25.595Z,1.90
2019-04-19T08:43:59.160Z,2.22
2019-04-19T08:46:26.408Z,1.95
2019-04-19T08:49:01.188Z,1.87
2019-04-19T08:51:38.988Z,2.10
2019-04-19T08:54:27.399Z,1.77
2019-04-19T08:56:46.048Z,2.27
2019-04-19T08:59:35.930Z,2.10
2019-04-19T09:01:59.138Z,2.00
2019-04-19T09:04:25.826Z,2.15
2019-04-19T09:09:32.902Z,1.75
2019-04-19T09:11:58.902Z,1.72
2019-04-19T09:14:33.114Z,2.20
2019-04-19T09:17:01.088Z,2.05
2019-04-19T09:19:44.125Z,1.72
2019-04-19T09:21:55.850Z,1.75
2019-04-19T09:24:13.152Z,1.92
2019-04-19T09:26:56.362Z,2.00
2019-04-19T09:29:33.670Z,1.50
2019-04-19T09:32:06.654Z,1.57
2019-04-19T09:34:30.393Z,1.62
2019-04-19T09:37:11.257Z,1.62
2019-04-19T09:39:42.561Z,1.75
2019-04-19T09:42:07.726Z,1.80
2019-04-19T09:44:38.256Z,1.75
2019-04-19T09:47:02.465Z,1.70
2019-04-19T09:49:46.371Z,1.57
2019-04-19T09:52:27.292Z,1.67
2019-04-19T09:54:51.217Z,1.67
2019-04-19T09:57:39.459Z,2.15
2019-04-19T09:59:58.026Z,1.45
2019-04-19T10:02:28.959Z,2.05
2019-04-19T10:04:53.024Z,1.75
2019-04-19T10:07:21.112Z,1.87
2019-04-19T10:09:56.651Z,1.75
2019-04-19T10:12:19.884Z,1.47
2019-04-19T10:14:48.306Z,1.87
2019-04-19T10:17:24.785Z,1.85
2019-04-19T10:19:54.901Z,1.92
2019-04-19T10:22:23.346Z,1.60
2019-04-19T10:24:54.050Z,1.45
2019-04-19T10:27:29.521Z,1.70
2019-04-19T10:29:58.290Z,1.70
2019-04-19T10:32:46.495Z,1.87
2019-04-19T10:35:15.521Z,1.60
2019-04-19T10:37:44.070Z,1.60
2019-04-19T10:40:13.558Z,1.67
2019-04-19T10:42:43.157Z,1.72
2019-04-19T10:45:14.139Z,1.60
2019-04-19T10:47:44.083Z,1.50
2019-04-19T10:50:27.248Z,1.65
2019-04-19T10:52:43.736Z,1.50
2019-04-19T10:55:12.500Z,1.55
2019-04-19T10:57:41.113Z,1.65
2019-04-19T11:00:11.366Z,1.42
2019-04-19T11:02:40.106Z,1.52
2019-04-19T11:05:11.181Z,1.87
2019-04-19T11:07:41.565Z,1.72
2019-04-19T11:10:11.854Z,1.95
2019-04-19T11:13:00.710Z,1.60
2019-04-19T11:15:30.466Z,1.35
2019-04-19T11:17:59.349Z,1.50
2019-04-19T11:20:35.371Z,1.30
2019-04-19T11:22:58.095Z,1.30
2019-04-19T11:25:26.520Z,1.67
2019-04-19T11:27:56.452Z,1.30
2019-04-19T11:30:26.699Z,1.22
2019-04-19T11:32:55.101Z,1.47
2019-04-19T11:35:25.438Z,1.20
2019-04-19T11:37:55.038Z,1.25
2019-04-19T11:40:24.910Z,1.20
2019-04-19T11:42:53.396Z,1.00
2019-04-19T11:45:21.954Z,1.00
2019-04-19T11:47:51.187Z,1.45
2019-04-19T11:50:19.935Z,1.42
2019-04-19T11:52:50.196Z,1.30
2019-04-19T11:55:18.604Z,1.20
2019-04-19T11:57:48.890Z,1.10
2019-04-19T12:00:36.052Z,1.00
2019-04-19T12:03:06.307Z,1.70
2019-04-19T12:05:35.927Z,1.00
2019-04-19T12:08:04.522Z,1.10
2019-04-19T12:10:34.355Z,1.20
2019-04-19T12:13:03.414Z,0.82
2019-04-19T12:15:33.864Z,0.90
2019-04-19T12:18:02.459Z,0.95
2019-04-19T12:20:31.127Z,1.30
2019-04-19T12:22:59.995Z,1.00
2019-04-19T12:25:28.446Z,0.88
2019-04-19T12:27:57.357Z,0.95
2019-04-19T12:30:27.298Z,0.90
2019-04-19T12:32:57.434Z,0.90
2019-04-19T12:35:27.346Z,1.10
2019-04-19T12:37:57.757Z,1.30
2019-04-19T12:40:25.786Z,1.10
2019-04-19T12:42:54.257Z,0.70
2019-04-19T12:45:23.989Z,0.90
2019-04-19T12:47:53.172Z,1.05
2019-04-19T12:50:21.860Z,0.80
2019-04-19T12:52:51.726Z,0.85
2019-04-19T12:55:21.951Z,1.00
2019-04-19T12:57:52.186Z,1.05
2019-04-19T13:00:23.522Z,0.90
2019-04-19T13:02:58.047Z,0.90
2019-04-19T13:05:28.299Z,1.10
2019-04-19T13:07:56.895Z,1.00
2019-04-19T13:10:25.096Z,1.30
2019-04-19T13:12:53.987Z,0.90
2019-04-19T13:15:23.772Z,1.22
2019-04-19T13:17:53.949Z,1.05
2019-04-19T13:20:27.528Z,1.10
2019-04-19T13:22:52.792Z,1.17
2019-04-19T13:25:21.501Z,0.98
2019-04-19T13:27:54.428Z,1.00
2019-04-19T13:30:30.854Z,0.90
2019-04-19T13:32:52.332Z,1.42
2019-04-19T13:35:21.268Z,0.80
2019-04-19T13:37:51.502Z,1.00
2019-04-19T13:40:28.316Z,1.00
2019-04-19T13:42:58.618Z,0.80
2019-04-19T13:45:31.317Z,1.05
2019-04-19T13:47:57.152Z,0.90
2019-04-19T13:50:32.194Z,0.80
2019-04-19T13:52:56.937Z,0.93
2019-04-19T13:55:26.556Z,0.70
2019-04-19T13:57:55.711Z,0.95
2019-04-19T14:00:44.731Z,0.95
2019-04-19T14:03:13.806Z,0.98
2019-04-19T14:05:43.790Z,1.02
2019-04-19T14:08:13.182Z,0.98
2019-04-19T14:10:41.480Z,0.90
2019-04-19T14:13:10.580Z,1.20
2019-04-19T14:15:40.651Z,1.10
2019-04-19T14:18:09.304Z,1.00
2019-04-19T14:20:45.130Z,0.85
2019-04-19T14:23:08.069Z,1.00
2019-04-19T14:25:37.121Z,0.90
2019-04-19T14:28:07.245Z,1.00
2019-04-19T14:30:35.908Z,0.90
2019-04-19T14:33:04.324Z,1.10
2019-04-19T14:35:32.725Z,0.80
2019-04-19T14:38:01.416Z,0.80
2019-04-19T14:40:31.117Z,1.10
2019-04-19T14:43:00.403Z,1.00
2019-04-19T14:45:30.405Z,1.00
2019-04-19T14:47:59.259Z,0.93
2019-04-19T14:50:40.375Z,1.12
2019-04-19T14:52:59.235Z,0.80
2019-04-19T14:55:27.903Z,0.98
2019-04-19T14:57:56.308Z,0.72
2019-04-19T15:00:27.248Z,1.00
2019-04-19T15:02:58.715Z,1.00
2019-04-19T15:05:29.892Z,0.90
2019-04-19T15:07:58.842Z,1.02
2019-04-19T15:10:27.373Z,0.70
2019-04-19T15:12:56.661Z,0.85
2019-04-19T15:15:26.729Z,0.80
2019-04-19T15:17:55.416Z,0.80
2019-04-19T15:20:24.298Z,0.90
2019-04-19T15:22:52.928Z,0.82
2019-04-19T15:25:23.522Z,1.00
2019-04-19T15:27:52.914Z,0.90
2019-04-19T15:30:21.758Z,1.00
2019-04-19T15:32:50.641Z,0.80
2019-04-19T15:35:19.599Z,0.95
2019-04-19T15:37:49.738Z,0.80
2019-04-19T15:40:22.452Z,0.85
2019-04-19T15:42:50.797Z,0.95
2019-04-19T15:45:22.932Z,1.22
2019-04-19T15:47:52.875Z,1.05
2019-04-19T15:50:22.383Z,0.68
2019-04-19T15:52:51.030Z,0.72
2019-04-19T15:55:19.913Z,0.80
2019-04-19T15:57:48.713Z,0.88
2019-04-19T16:00:22.340Z,1.00
2019-04-19T16:02:58.204Z,0.60
2019-04-19T16:05:28.413Z,0.70
2019-04-19T16:08:16.003Z,0.90
2019-04-19T16:11:02.695Z,0.70
2019-04-19T16:13:31.938Z,0.60
2019-04-19T16:16:00.368Z,0.65
2019-04-19T16:18:48.330Z,0.82
2019-04-19T16:21:39.639Z,0.72
2019-04-19T16:24:00.964Z,0.82
2019-04-19T16:26:30.875Z,0.82
2019-04-19T16:28:59.897Z,0.90
2019-04-19T16:31:28.696Z,0.62
2019-04-19T16:33:58.244Z,0.70
2019-04-19T16:36:27.011Z,0.75
2019-04-19T16:38:56.598Z,0.80
2019-04-19T16:41:25.232Z,0.62
2019-04-19T16:43:53.764Z,0.70
2019-04-19T16:46:26.145Z,0.70
2019-04-19T16:48:52.707Z,0.68
2019-04-19T16:51:32.110Z,0.90
2019-04-19T16:53:51.905Z,0.98
2019-04-19T16:56:21.642Z,0.70
2019-04-19T16:58:50.935Z,0.62
2019-04-19T17:01:20.769Z,0.90
2019-04-19T17:03:49.967Z,0.82
2019-04-19T17:06:18.630Z,0.70
2019-04-19T17:08:48.280Z,0.80
2019-04-19T17:11:17.662Z,0.65
2019-04-19T17:13:47.160Z,0.70
2019-04-19T17:16:20.181Z,0.55
2019-04-19T17:19:06.543Z,0.60
2019-04-19T17:21:47.251Z,0.90
2019-04-19T17:24:05.490Z,0.60
2019-04-19T17:26:34.947Z,0.70
2019-04-19T17:29:04.587Z,0.60
2019-04-19T17:31:34.066Z,0.57
2019-04-19T17:34:02.787Z,0.70
2019-04-19T17:36:32.334Z,0.57
2019-04-19T17:39:02.203Z,0.42
2019-04-19T17:41:30.500Z,0.55
2019-04-19T17:43:59.518Z,0.50
2019-04-19T17:46:28.543Z,0.50
2019-04-19T17:48:56.975Z,0.50
2019-04-19T17:51:25.611Z,0.80
2019-04-19T17:53:54.013Z,0.50
2019-04-19T17:56:22.371Z,0.57
2019-04-19T17:58:52.174Z,0.78
2019-04-19T18:01:20.637Z,0.70
2019-04-19T18:03:49.086Z,0.60
2019-04-19T18:06:18.299Z,0.75
2019-04-19T18:08:48.717Z,0.70
2019-04-19T18:11:22.662Z,0.65
2019-04-19T18:14:07.230Z,0.47
2019-04-19T18:16:36.573Z,0.70
2019-04-19T18:19:05.522Z,0.60
2019-04-19T18:21:37.575Z,0.70
2019-04-19T18:24:10.442Z,0.80
2019-04-19T18:26:36.611Z,0.65
2019-04-19T18:29:09.640Z,0.80
2019-04-19T18:31:40.759Z,0.78
2019-04-19T18:34:10.265Z,1.05
2019-04-19T18:36:41.868Z,0.60
2019-04-19T18:39:08.456Z,2.65
2019-04-19T18:41:37.037Z,0.88
2019-04-19T18:44:16.464Z,0.70
2019-04-19T18:46:36.333Z,0.85
2019-04-19T18:49:05.539Z,0.80
2019-04-19T18:51:38.520Z,1.00
2019-04-19T18:54:15.634Z,0.65
2019-04-19T18:56:34.413Z,0.72
2019-04-19T18:59:12.019Z,0.90
2019-04-19T19:01:37.860Z,1.00
2019-04-19T19:04:25.972Z,1.10
2019-04-19T19:06:52.945Z,1.70
2019-04-19T19:09:34.390Z,2.85
2019-04-19T19:11:59.476Z,2.15
2019-04-19T19:14:23.461Z,1.70
2019-04-19T19:16:54.203Z,1.55
2019-04-19T19:19:41.640Z,1.45
2019-04-19T19:22:12.806Z,2.10
2019-04-19T19:24:59.086Z,1.85
2019-04-19T19:27:17.086Z,1.87
2019-04-19T19:29:41.212Z,1.70
2019-04-19T19:32:13.009Z,1.82
2019-04-19T19:34:41.929Z,1.52
2019-04-19T19:37:13.617Z,1.60
2019-04-19T19:39:42.280Z,1.75
2019-04-19T19:42:44.659Z,1.37
2019-04-19T19:44:52.138Z,1.40
2019-04-19T19:47:58.988Z,1.40
2019-04-19T19:52:51.719Z,1.20
2019-04-19T19:55:17.368Z,1.32
2019-04-19T19:57:46.549Z,1.27
2019-04-19T20:00:13.581Z,1.72
2019-04-19T20:02:45.420Z,1.52
2019-04-19T20:05:05.143Z,1.52
2019-04-19T20:07:39.630Z,2.12
2019-04-19T20:10:08.622Z,1.80
2019-04-19T20:12:37.274Z,2.00
2019-04-19T20:15:11.030Z,1.60
2019-04-19T20:17:38.727Z,1.55
2019-04-19T20:20:07.678Z,1.70
2019-04-19T20:22:43.558Z,1.92
2019-04-19T20:25:24.493Z,1.90
2019-04-19T20:27:43.379Z,1.47
2019-04-19T20:30:09.948Z,1.60
2019-04-19T20:32:38.862Z,1.98
2019-04-19T20:35:15.141Z,2.08
2019-04-19T20:37:38.116Z,2.50
2019-04-19T20:40:15.382Z,1.92
2019-04-19T20:43:00.000Z,1.82
2019-04-19T20:45:21.962Z,1.40
2019-04-19T20:47:46.198Z,1.75
2019-04-19T20:50:21.224Z,1.85
2019-04-19T20:52:51.467Z,1.98
2019-04-19T20:55:29.299Z,3.27
2019-04-19T20:57:59.101Z,3.00
2019-04-19T21:00:33.457Z,1.47
2019-04-19T21:03:01.699Z,1.77
2019-04-19T21:05:37.232Z,1.75
2019-04-19T21:08:07.126Z,2.10
2019-04-19T21:10:31.784Z,1.82
2019-04-19T21:13:04.563Z,1.50
2019-04-19T21:15:34.832Z,1.82
2019-04-19T21:18:01.286Z,2.33
2019-04-19T21:20:31.211Z,2.67
2019-04-19T21:23:08.541Z,1.50
2019-04-19T21:25:39.793Z,2.12
2019-04-19T21:28:03.082Z,1.80
2019-04-19T21:30:31.332Z,2.80
2019-04-19T21:33:04.707Z,2.80
2019-04-19T21:35:31.325Z,2.80
2019-04-19T21:38:05.727Z,2.22
2019-04-19T21:40:36.203Z,2.50
2019-04-19T21:43:04.486Z,1.98
2019-04-19T21:45:37.856Z,1.98
2019-04-19T21:48:01.262Z,1.90
2019-04-19T21:50:36.901Z,1.92
2019-04-19T21:53:05.194Z,2.35
2019-04-19T21:55:36.638Z,2.45
2019-04-19T21:58:07.017Z,1.92
2019-04-19T22:00:37.144Z,2.90
2019-04-19T22:03:13.969Z,2.50
2019-04-19T22:05:37.563Z,2.50
2019-04-19T22:08:06.492Z,2.47
2019-04-19T22:10:39.949Z,2.70
2019-04-19T22:13:06.322Z,2.45
2019-04-19T22:15:42.287Z,2.30
2019-04-19T22:18:06.449Z,1.72
2019-04-19T22:20:34.751Z,2.00
2019-04-19T22:23:06.456Z,2.35
2019-04-19T22:25:45.383Z,2.27
2019-04-19T22:28:03.621Z,1.77
2019-04-19T22:30:38.814Z,2.12
2019-04-19T22:33:03.955Z,1.65
2019-04-19T22:35:31.914Z,2.20
2019-04-19T22:38:07.261Z,2.17
2019-04-19T22:40:30.692Z,2.17
2019-04-19T22:43:04.850Z,2.22
2019-04-19T22:45:30.534Z,2.02
2019-04-19T22:48:07.650Z,1.90
2019-04-19T22:50:32.895Z,1.60
2019-04-19T22:53:00.730Z,1.62
2019-04-19T22:55:42.628Z,2.00
2019-04-19T22:58:00.999Z,1.50
2019-04-19T23:00:34.453Z,1.62
2019-04-19T23:03:04.897Z,1.85
2019-04-19T23:05:39.843Z,1.60
2019-04-19T23:08:06.202Z,1.70
2019-04-19T23:10:45.137Z,1.62
2019-04-19T23:13:05.305Z,1.40
2019-04-19T23:15:35.972Z,1.60
2019-04-19T23:18:09.920Z,1.77
2019-04-19T23:20:35.137Z,1.47
2019-04-19T23:23:07.503Z,1.25
2019-04-19T23:25:37.094Z,1.72
2019-04-19T23:28:16.454Z,1.45
2019-04-19T23:30:34.771Z,1.72
2019-04-19T23:33:07.104Z,1.62
2019-04-19T23:35:36.639Z,1.60
2019-04-19T23:38:03.596Z,1.80
2019-04-19T23:40:35.819Z,1.77
2019-04-19T23:43:02.139Z,1.85
2019-04-19T23:45:36.854Z,1.50
2019-04-19T23:48:00.815Z,1.42
2019-04-19T23:50:33.599Z,1.60
2019-04-19T23:53:02.222Z,1.42
2019-04-19T23:55:30.542Z,1.30
2019-04-19T23:57:59.872Z,1.70
